Archival Weather

Sharurah

Sharurah, Saudi Arabia (OESH)

Report from: Tuesday, September 19, 2023 5:00 AM +03
Current time: Monday, June 17, 2024 12:52 PM +03

Current weather – Weather history – Daily summaries
Weather forecast

Temperature29.0°C (84.2°F)
Heat index27.4°C (81.4°F)
Dew point0.0°C (32.0°F)
Winds 7 kts (3.6 m/s, 8.1 mph) East-Southeast (120°)
Clouds Sky clear
Altimeter29.77 in.Hg (1008 mB)
Relative humidity15 %
Density altitude1,881 ft. (573 m)
Remarks Ceiling and visibility OK
No significant changes expected in the next two hours
Flight conditions Visual Meteorological Conditions
Raw dataOESH 190200Z 12007KT CAVOK 29/00 Q1008 NOSIG
An error has occurred. This application may no longer respond until reloaded. Reload 🗙